createdAt,value
2018-07-11T00:01:01.313Z,13.49
2018-07-11T00:02:09.048Z,13.49
2018-07-11T00:03:17.125Z,13.50
2018-07-11T00:04:25.211Z,13.52
2018-07-11T00:05:33.250Z,13.47
2018-07-11T00:06:41.354Z,13.52
2018-07-11T00:07:49.391Z,13.55
2018-07-11T00:08:57.453Z,13.52
2018-07-11T00:10:05.522Z,13.52
2018-07-11T00:11:13.557Z,13.54
2018-07-11T00:12:21.639Z,13.46
2018-07-11T00:13:29.708Z,13.49
2018-07-11T00:14:37.769Z,13.52
2018-07-11T00:15:45.829Z,13.45
2018-07-11T00:16:53.866Z,13.45
2018-07-11T00:18:01.963Z,13.33
2018-07-11T00:19:10.037Z,13.43
2018-07-11T00:20:18.076Z,13.36
2018-07-11T00:21:26.167Z,13.40
2018-07-11T00:22:34.206Z,13.31
2018-07-11T00:23:42.289Z,13.40
2018-07-11T00:24:50.363Z,13.31
2018-07-11T00:25:58.436Z,13.36
2018-07-11T00:27:06.476Z,13.27
2018-07-11T00:28:14.534Z,13.27
2018-07-11T00:29:22.624Z,13.31
2018-07-11T00:30:30.675Z,13.42
2018-07-11T00:31:38.743Z,13.33
2018-07-11T00:32:47.065Z,13.33
2018-07-11T00:33:54.870Z,13.36
2018-07-11T00:35:02.934Z,13.37
2018-07-11T00:36:11.040Z,13.42
2018-07-11T00:37:19.216Z,13.33
2018-07-11T00:38:27.128Z,13.40
2018-07-11T00:39:35.193Z,13.49
2018-07-11T00:40:43.260Z,13.45
2018-07-11T00:41:51.334Z,13.47
2018-07-11T00:42:59.382Z,13.50
2018-07-11T00:44:07.458Z,13.40
2018-07-11T00:45:15.515Z,13.40
2018-07-11T00:46:23.567Z,13.50
2018-07-11T00:47:31.645Z,13.47
2018-07-11T00:48:39.719Z,13.49
2018-07-11T00:49:47.784Z,13.45
2018-07-11T00:50:55.866Z,13.37
2018-07-11T00:52:03.892Z,13.40
2018-07-11T00:53:11.984Z,13.40
2018-07-11T00:54:20.044Z,13.42
2018-07-11T00:55:28.109Z,13.27
2018-07-11T00:56:36.192Z,13.31
2018-07-11T00:57:44.218Z,13.37
2018-07-11T00:58:52.316Z,13.26
2018-07-11T01:00:00.407Z,13.26
2018-07-11T01:01:08.435Z,13.31
2018-07-11T01:02:16.496Z,13.30
2018-07-11T01:03:24.555Z,13.20
2018-07-11T01:04:32.633Z,13.23
2018-07-11T01:05:40.705Z,13.27
2018-07-11T01:06:48.751Z,13.17
2018-07-11T01:07:56.839Z,13.17
2018-07-11T01:09:04.913Z,13.11
2018-07-11T01:10:12.962Z,13.08
2018-07-11T01:11:21.030Z,13.03
2018-07-11T01:12:29.145Z,13.03
2018-07-11T01:13:37.168Z,12.93
2018-07-11T01:14:45.252Z,12.91
2018-07-11T01:15:53.310Z,12.84
2018-07-11T01:17:01.378Z,12.78
2018-07-11T01:18:09.438Z,12.70
2018-07-11T01:19:17.501Z,12.58
2018-07-11T01:20:25.573Z,12.48
2018-07-11T01:21:33.663Z,12.37
2018-07-11T01:22:41.701Z,12.39
2018-07-11T01:23:50.023Z,12.33
2018-07-11T01:24:57.846Z,12.30
2018-07-11T01:26:05.915Z,12.14
2018-07-11T01:27:13.953Z,12.15
2018-07-11T01:28:22.054Z,12.10
2018-07-11T01:29:30.108Z,11.99
2018-07-11T01:30:38.171Z,11.93
2018-07-11T01:31:46.253Z,11.83
2018-07-11T01:32:54.296Z,11.80
2018-07-11T01:34:02.389Z,11.78
2018-07-11T01:35:10.457Z,11.65
2018-07-11T01:36:18.502Z,11.60
2018-07-11T01:37:26.566Z,11.56
2018-07-11T01:38:34.634Z,11.51
2018-07-11T01:39:42.701Z,11.41
2018-07-11T01:40:50.763Z,11.41
2018-07-11T01:41:58.820Z,11.44
2018-07-11T01:43:07.246Z,11.38
2018-07-11T01:44:14.967Z,11.37
2018-07-11T01:45:23.030Z,11.26
2018-07-11T01:46:31.112Z,11.27
2018-07-11T01:47:39.171Z,11.19
2018-07-11T01:48:47.230Z,11.22
2018-07-11T01:49:55.280Z,11.22
2018-07-11T01:51:03.349Z,11.31
2018-07-11T01:52:11.414Z,11.27
2018-07-11T01:53:19.470Z,11.23
2018-07-11T01:54:27.565Z,11.27
2018-07-11T01:55:35.616Z,11.23
2018-07-11T01:56:43.685Z,11.25
2018-07-11T01:57:51.964Z,11.23
2018-07-11T01:59:00.035Z,11.20
2018-07-11T02:00:08.091Z,11.15
2018-07-11T02:01:16.160Z,11.15
2018-07-11T02:02:24.215Z,11.05
2018-07-11T02:03:32.320Z,11.07
2018-07-11T02:04:40.347Z,11.07
2018-07-11T02:05:48.433Z,10.95
2018-07-11T02:06:56.477Z,11.04
2018-07-11T02:08:04.544Z,10.97
2018-07-11T02:09:12.623Z,10.98
2018-07-11T02:10:20.664Z,11.01
2018-07-11T02:11:28.742Z,10.97
2018-07-11T02:12:38.013Z,10.97
2018-07-11T02:13:50.312Z,10.94
2018-07-11T02:14:58.364Z,10.94
2018-07-11T02:17:23.984Z,10.98
2018-07-11T02:18:32.258Z,10.98
2018-07-11T02:19:42.528Z,11.00
2018-07-11T02:20:53.018Z,10.94
2018-07-11T02:22:02.687Z,10.98
2018-07-11T02:23:13.604Z,10.92
2018-07-11T02:24:21.636Z,10.98
2018-07-11T02:25:29.694Z,11.00
2018-07-11T02:26:37.766Z,10.87
2018-07-11T02:27:45.842Z,10.86
2018-07-11T02:28:53.865Z,10.84
2018-07-11T02:30:01.948Z,10.80
2018-07-11T02:31:10.635Z,10.83
2018-07-11T02:32:18.668Z,10.97
2018-07-11T02:33:26.744Z,10.82
2018-07-11T02:34:34.829Z,10.89
2018-07-11T02:35:42.862Z,10.82
2018-07-11T02:36:50.944Z,10.83
2018-07-11T02:37:58.998Z,10.82
2018-07-11T02:39:07.061Z,10.82
2018-07-11T02:40:15.132Z,10.95
2018-07-11T02:41:23.174Z,10.89
2018-07-11T02:42:31.243Z,10.83
2018-07-11T02:43:39.315Z,10.86
2018-07-11T02:44:47.385Z,10.87
2018-07-11T02:45:55.455Z,10.86
2018-07-11T02:47:03.502Z,10.83
2018-07-11T02:48:11.570Z,10.82
2018-07-11T02:49:19.633Z,10.86
2018-07-11T02:50:31.929Z,10.80
2018-07-11T02:52:53.916Z,10.82
2018-07-11T02:54:01.972Z,10.82
2018-07-11T02:55:10.040Z,10.77
2018-07-11T02:56:18.085Z,10.77
2018-07-11T02:57:26.160Z,10.82
2018-07-11T02:58:34.203Z,10.86
2018-07-11T02:59:42.280Z,10.84
2018-07-11T03:00:50.406Z,10.80
2018-07-11T03:03:13.154Z,10.83
2018-07-11T03:04:23.399Z,10.80
2018-07-11T03:05:32.669Z,10.87
2018-07-11T03:06:40.745Z,10.87
2018-07-11T03:07:48.812Z,10.77
2018-07-11T03:08:56.860Z,10.86
2018-07-11T03:10:04.929Z,10.90
2018-07-11T03:11:12.980Z,10.95
2018-07-11T03:12:21.060Z,10.80
2018-07-11T03:13:29.136Z,10.83
2018-07-11T03:14:37.168Z,10.79
2018-07-11T03:15:45.274Z,10.77
2018-07-11T03:16:53.313Z,10.79
2018-07-11T03:18:01.375Z,10.84
2018-07-11T03:19:09.427Z,10.79
2018-07-11T03:20:17.546Z,10.76
2018-07-11T03:21:25.855Z,10.82
2018-07-11T03:22:33.625Z,10.83
2018-07-11T03:23:44.286Z,10.76
2018-07-11T03:24:52.366Z,10.76
2018-07-11T03:26:00.455Z,10.71
2018-07-11T03:27:08.519Z,10.64
2018-07-11T03:28:16.561Z,10.75
2018-07-11T03:29:24.639Z,10.65
2018-07-11T03:30:32.693Z,10.67
2018-07-11T03:31:40.764Z,10.62
2018-07-11T03:32:48.827Z,10.61
2018-07-11T03:33:56.884Z,10.61
2018-07-11T03:35:04.946Z,10.55
2018-07-11T03:36:13.013Z,10.57
2018-07-11T03:37:21.088Z,10.49
2018-07-11T03:38:29.153Z,10.53
2018-07-11T03:39:37.209Z,10.58
2018-07-11T03:40:45.260Z,10.59
2018-07-11T03:41:53.320Z,10.57
2018-07-11T03:43:01.395Z,10.55
2018-07-11T03:44:09.466Z,10.58
2018-07-11T03:45:17.526Z,10.48
2018-07-11T03:46:25.592Z,10.59
2018-07-11T03:47:33.641Z,10.46
2018-07-11T03:48:41.737Z,10.51
2018-07-11T03:49:49.796Z,10.51
2018-07-11T03:50:57.839Z,10.59
2018-07-11T03:52:05.925Z,10.57
2018-07-11T03:53:13.964Z,10.53
2018-07-11T03:54:22.043Z,10.67
2018-07-11T03:55:30.094Z,10.75
2018-07-11T03:56:38.153Z,10.69
2018-07-11T03:57:46.231Z,10.69
2018-07-11T03:58:54.274Z,10.79
2018-07-11T04:00:02.349Z,10.77
2018-07-11T04:01:10.674Z,10.80
2018-07-11T04:02:18.460Z,10.83
2018-07-11T04:03:26.554Z,10.82
2018-07-11T04:04:34.662Z,10.86
2018-07-11T04:05:42.648Z,10.76
2018-07-11T04:06:50.744Z,10.82
2018-07-11T04:07:58.779Z,10.84
2018-07-11T04:09:06.850Z,10.83
2018-07-11T04:10:14.917Z,10.83
2018-07-11T04:11:22.977Z,10.86
2018-07-11T04:12:31.057Z,10.82
2018-07-11T04:13:39.117Z,10.80
2018-07-11T04:14:47.188Z,10.80
2018-07-11T04:15:55.271Z,10.84
2018-07-11T04:17:03.286Z,10.97
2018-07-11T04:18:11.361Z,11.02
2018-07-11T04:19:19.423Z,11.13
2018-07-11T04:20:27.483Z,11.05
2018-07-11T04:21:35.949Z,11.13
2018-07-11T04:22:44.882Z,11.22
2018-07-11T04:23:52.285Z,11.27
2018-07-11T04:25:04.588Z,11.26
2018-07-11T04:26:13.668Z,11.27
2018-07-11T04:27:25.552Z,11.34
2018-07-11T04:28:46.708Z,11.37
2018-07-11T04:29:41.715Z,11.34
2018-07-11T04:30:49.745Z,11.33
2018-07-11T04:33:15.100Z,11.23
2018-07-11T04:34:23.025Z,11.25
2018-07-11T04:35:31.086Z,11.16
2018-07-11T04:36:39.173Z,11.25
2018-07-11T04:37:47.233Z,11.26
2018-07-11T04:38:55.287Z,11.34
2018-07-11T04:40:03.349Z,11.37
2018-07-11T04:41:11.434Z,11.31
2018-07-11T04:42:19.483Z,11.35
2018-07-11T04:43:27.535Z,11.38
2018-07-11T04:44:36.728Z,11.31
2018-07-11T04:45:44.280Z,11.37
2018-07-11T04:46:51.743Z,11.40
2018-07-11T04:47:59.837Z,11.44
2018-07-11T04:49:07.867Z,11.44
2018-07-11T04:50:17.138Z,11.38
2018-07-11T04:51:25.205Z,11.44
2018-07-11T04:52:33.302Z,11.51
2018-07-11T04:53:41.342Z,11.59
2018-07-11T04:54:49.401Z,11.48
2018-07-11T04:55:57.662Z,11.53
2018-07-11T04:57:05.732Z,11.59
2018-07-11T04:58:13.763Z,11.56
2018-07-11T04:59:21.835Z,11.52
2018-07-11T05:00:29.921Z,11.59
2018-07-11T05:01:37.970Z,11.59
2018-07-11T05:02:46.041Z,11.76
2018-07-11T05:03:54.276Z,11.73
2018-07-11T05:05:02.365Z,11.65
2018-07-11T05:06:14.536Z,11.80
2018-07-11T05:07:18.488Z,11.77
2018-07-11T05:08:31.642Z,12.17
2018-07-11T05:09:36.664Z,12.29
2018-07-11T05:10:44.749Z,12.54
2018-07-11T05:11:52.783Z,13.02
2018-07-11T05:13:00.840Z,13.31
2018-07-11T05:14:08.902Z,13.26
2018-07-11T05:15:16.971Z,13.12
2018-07-11T05:16:25.059Z,13.08
2018-07-11T05:17:33.105Z,13.03
2018-07-11T05:18:41.188Z,13.03
2018-07-11T05:19:49.281Z,12.88
2018-07-11T05:20:57.322Z,12.88
2018-07-11T05:22:05.399Z,12.87
2018-07-11T05:23:13.412Z,12.78
2018-07-11T05:24:21.535Z,12.70
2018-07-11T05:25:29.530Z,12.65
2018-07-11T05:26:37.879Z,12.72
2018-07-11T05:27:46.269Z,12.63
2018-07-11T05:28:53.776Z,12.66
2018-07-11T05:30:01.835Z,12.68
2018-07-11T05:31:09.864Z,12.57
2018-07-11T05:32:17.939Z,12.68
2018-07-11T05:33:25.991Z,12.73
2018-07-11T05:34:34.064Z,12.70
2018-07-11T05:35:42.126Z,12.72
2018-07-11T05:36:50.215Z,12.84
2018-07-11T05:37:58.259Z,12.87
2018-07-11T05:39:06.305Z,12.84
2018-07-11T05:40:14.388Z,12.88
2018-07-11T05:41:22.444Z,12.91
2018-07-11T05:42:30.618Z,12.95
2018-07-11T05:43:38.579Z,12.99
2018-07-11T05:44:46.645Z,13.12
2018-07-11T05:45:54.700Z,13.13
2018-07-11T05:47:02.779Z,13.19
2018-07-11T05:48:10.846Z,13.27
2018-07-11T05:49:18.925Z,13.33
2018-07-11T05:50:26.963Z,13.46
2018-07-11T05:51:35.053Z,13.47
2018-07-11T05:52:43.121Z,13.57
2018-07-11T05:53:51.194Z,13.62
2018-07-11T05:54:59.246Z,13.65
2018-07-11T05:56:07.332Z,13.62
2018-07-11T05:57:15.392Z,13.71
2018-07-11T05:58:23.421Z,13.78
2018-07-11T05:59:31.510Z,13.95
2018-07-11T06:00:39.575Z,13.85
2018-07-11T06:01:47.671Z,13.97
2018-07-11T06:02:55.720Z,13.98
2018-07-11T06:04:03.789Z,14.08
2018-07-11T06:05:11.845Z,14.22
2018-07-11T06:06:19.916Z,14.22
2018-07-11T06:07:28.087Z,14.26
2018-07-11T06:08:36.057Z,14.26
2018-07-11T06:09:44.095Z,14.26
2018-07-11T06:10:52.160Z,14.33
2018-07-11T06:12:00.228Z,14.36
2018-07-11T06:13:08.310Z,14.31
2018-07-11T06:14:16.370Z,14.34
2018-07-11T06:15:24.463Z,14.41
2018-07-11T06:16:32.506Z,14.41
2018-07-11T06:17:40.639Z,14.55
2018-07-11T06:18:48.641Z,14.67
2018-07-11T06:19:56.695Z,14.67
2018-07-11T06:21:04.784Z,14.85
2018-07-11T06:22:12.840Z,14.94
2018-07-11T06:23:20.917Z,15.00
2018-07-11T06:24:28.962Z,15.11
2018-07-11T06:25:37.129Z,15.25
2018-07-11T06:26:45.104Z,15.37
2018-07-11T06:27:53.212Z,15.52
2018-07-11T06:29:01.248Z,15.55
2018-07-11T06:30:09.311Z,15.60
2018-07-11T06:31:17.364Z,15.75
2018-07-11T06:32:25.446Z,15.78
2018-07-11T06:33:33.643Z,15.98
2018-07-11T06:34:41.573Z,15.96
2018-07-11T06:35:49.632Z,15.92
2018-07-11T06:36:57.730Z,16.10
2018-07-11T06:38:05.765Z,16.21
2018-07-11T06:39:13.914Z,16.31
2018-07-11T06:40:21.911Z,16.44
2018-07-11T06:41:29.970Z,16.59
2018-07-11T06:42:38.062Z,16.50
2018-07-11T06:43:46.113Z,16.72
2018-07-11T06:44:54.171Z,16.69
2018-07-11T06:46:02.255Z,16.66
2018-07-11T06:47:10.329Z,16.91
2018-07-11T06:48:18.372Z,16.87
2018-07-11T06:49:27.555Z,17.02
2018-07-11T06:50:34.545Z,17.16
2018-07-11T06:51:42.617Z,17.16
2018-07-11T06:54:05.176Z,17.34
2018-07-11T06:55:13.285Z,17.57
2018-07-11T06:56:23.355Z,17.66
2018-07-11T06:57:30.083Z,17.71
2018-07-11T06:58:38.093Z,17.84
2018-07-11T06:59:46.149Z,18.00
2018-07-11T07:00:54.210Z,18.19
2018-07-11T07:02:02.304Z,18.19
2018-07-11T07:03:12.760Z,18.36
2018-07-11T07:04:20.839Z,18.30
2018-07-11T07:05:30.318Z,18.43
2018-07-11T07:06:36.984Z,18.61
2018-07-11T07:07:45.034Z,18.73
2018-07-11T07:08:53.127Z,18.78
2018-07-11T07:10:01.179Z,18.76
2018-07-11T07:11:11.664Z,18.78
2018-07-11T07:12:19.736Z,18.78
2018-07-11T07:13:27.808Z,18.83
2018-07-11T07:14:37.892Z,18.92
2018-07-11T07:15:43.914Z,19.34
2018-07-11T07:16:52.019Z,19.44
2018-07-11T07:18:00.087Z,19.48
2018-07-11T07:19:08.174Z,19.48
2018-07-11T07:20:16.236Z,19.90
2018-07-11T07:21:24.315Z,20.22
2018-07-11T07:22:32.435Z,20.12
2018-07-11T07:23:40.451Z,20.48
2018-07-11T07:24:48.506Z,20.63
2018-07-11T07:25:56.632Z,20.32
2018-07-11T07:27:04.656Z,20.08
2018-07-11T07:28:12.743Z,20.30
2018-07-11T07:29:20.794Z,20.52
2018-07-11T07:30:31.946Z,20.44
2018-07-11T07:31:36.988Z,20.48
2018-07-11T07:32:45.031Z,20.80
2018-07-11T07:33:53.118Z,21.40
2018-07-11T07:35:01.178Z,22.06
2018-07-11T07:36:09.256Z,22.81
2018-07-11T07:37:17.311Z,23.42
2018-07-11T07:38:25.397Z,24.16
2018-07-11T07:39:33.476Z,24.68
2018-07-11T07:40:41.549Z,25.59
2018-07-11T07:41:49.623Z,25.88
2018-07-11T07:42:57.692Z,26.59
2018-07-11T07:44:05.763Z,26.71
2018-07-11T07:45:13.837Z,27.00
2018-07-11T07:46:21.980Z,27.34
2018-07-11T07:47:30.109Z,27.64
2018-07-11T07:48:38.160Z,26.52
2018-07-11T07:49:46.181Z,25.68
2018-07-11T07:50:54.274Z,25.85
2018-07-11T07:52:02.340Z,24.75
2018-07-11T07:53:10.408Z,24.11
2018-07-11T07:54:18.561Z,23.63
2018-07-11T07:55:26.639Z,23.51
2018-07-11T07:56:34.702Z,23.88
2018-07-11T07:57:42.798Z,24.58
2018-07-11T07:58:50.823Z,24.92
2018-07-11T07:59:58.997Z,25.06
2018-07-11T08:01:07.045Z,24.61
2018-07-11T08:02:15.091Z,24.06
2018-07-11T08:03:23.163Z,23.59
2018-07-11T08:04:31.269Z,23.51
2018-07-11T08:05:39.356Z,23.66
2018-07-11T08:06:47.411Z,24.25
2018-07-11T08:07:55.480Z,24.68
2018-07-11T08:09:03.536Z,25.06
2018-07-11T08:10:11.693Z,25.55
2018-07-11T08:11:19.705Z,26.13
2018-07-11T08:12:27.874Z,26.42
2018-07-11T08:13:35.893Z,26.36
2018-07-11T08:14:43.912Z,26.88
2018-07-11T08:15:51.968Z,26.56
2018-07-11T08:17:00.131Z,26.33
2018-07-11T08:18:08.162Z,26.37
2018-07-11T08:19:16.241Z,25.39
2018-07-11T08:20:24.343Z,25.03
2018-07-11T08:21:32.445Z,24.56
2018-07-11T08:22:40.581Z,24.10
2018-07-11T08:23:48.598Z,23.64
2018-07-11T08:24:56.727Z,23.48
2018-07-11T08:26:04.767Z,23.52
2018-07-11T08:27:13.097Z,23.52
2018-07-11T08:28:21.108Z,24.34
2018-07-11T08:29:29.189Z,25.16
2018-07-11T08:30:37.212Z,25.11
2018-07-11T08:31:45.338Z,24.77
2018-07-11T08:32:53.396Z,24.86
2018-07-11T08:34:01.486Z,24.58
2018-07-11T08:35:09.745Z,24.07
2018-07-11T08:36:17.662Z,23.33
2018-07-11T08:37:25.765Z,22.95
2018-07-11T08:38:33.888Z,22.52
2018-07-11T08:39:41.887Z,22.08
2018-07-11T08:40:49.968Z,21.83
2018-07-11T08:41:58.032Z,21.65
2018-07-11T08:43:06.134Z,21.20
2018-07-11T08:44:14.353Z,20.95
2018-07-11T08:45:22.282Z,20.89
2018-07-11T08:46:30.327Z,20.71
2018-07-11T08:47:38.457Z,20.60
2018-07-11T08:48:46.455Z,20.67
2018-07-11T08:49:54.523Z,20.73
2018-07-11T08:51:02.687Z,20.74
2018-07-11T08:52:10.768Z,20.78
2018-07-11T08:53:18.767Z,20.82
2018-07-11T08:54:26.893Z,20.90
2018-07-11T08:55:34.964Z,20.78
2018-07-11T08:56:43.015Z,20.93
2018-07-11T08:57:51.086Z,20.95
2018-07-11T08:58:59.162Z,21.03
2018-07-11T09:00:07.268Z,20.92
2018-07-11T09:01:15.302Z,20.86
2018-07-11T09:02:23.381Z,20.93
2018-07-11T09:03:31.446Z,20.82
2018-07-11T09:04:39.525Z,20.80
2018-07-11T09:05:47.605Z,20.86
2018-07-11T09:06:55.675Z,20.90
2018-07-11T09:08:03.707Z,20.96
2018-07-11T09:09:11.795Z,21.41
2018-07-11T09:10:19.894Z,21.75
2018-07-11T09:11:27.948Z,21.62
2018-07-11T09:12:36.050Z,21.74
2018-07-11T09:13:44.107Z,21.60
2018-07-11T09:14:52.212Z,21.65
2018-07-11T09:16:00.275Z,21.62
2018-07-11T09:17:08.318Z,21.58
2018-07-11T09:18:16.392Z,21.54
2018-07-11T09:19:24.445Z,21.65
2018-07-11T09:20:32.549Z,21.75
2018-07-11T09:21:40.584Z,21.75
2018-07-11T09:22:48.726Z,21.72
2018-07-11T09:23:56.798Z,21.89
2018-07-11T09:25:04.819Z,22.00
2018-07-11T09:26:12.887Z,22.26
2018-07-11T09:27:21.021Z,22.43
2018-07-11T09:28:29.079Z,22.68
2018-07-11T09:29:37.131Z,22.58
2018-07-11T09:30:45.252Z,22.51
2018-07-11T09:31:53.287Z,22.52
2018-07-11T09:33:01.386Z,22.40
2018-07-11T09:34:09.402Z,22.06
2018-07-11T09:35:17.475Z,22.15
2018-07-11T09:36:25.568Z,22.07
2018-07-11T09:37:33.681Z,22.12
2018-07-11T09:38:41.728Z,21.91
2018-07-11T09:39:49.761Z,21.84
2018-07-11T09:40:57.899Z,21.92
2018-07-11T09:42:05.970Z,22.01
2018-07-11T09:43:13.994Z,21.94
2018-07-11T09:44:22.124Z,22.12
2018-07-11T09:45:30.150Z,22.30
2018-07-11T09:46:38.216Z,22.44
2018-07-11T09:47:46.329Z,22.19
2018-07-11T09:48:54.454Z,22.16
2018-07-11T09:50:02.485Z,22.18
2018-07-11T09:51:10.518Z,22.16
2018-07-11T09:52:18.684Z,22.19
2018-07-11T09:53:26.663Z,22.16
2018-07-11T09:54:34.769Z,22.26
2018-07-11T09:55:42.826Z,22.31
2018-07-11T09:56:50.892Z,22.40
2018-07-11T09:57:58.978Z,22.46
2018-07-11T09:59:07.067Z,22.53
2018-07-11T10:00:15.120Z,22.61
2018-07-11T10:01:23.186Z,22.55
2018-07-11T10:02:31.277Z,22.26
2018-07-11T10:03:39.325Z,22.23
2018-07-11T10:04:47.403Z,22.06
2018-07-11T10:05:55.504Z,22.03
2018-07-11T10:07:03.542Z,22.06
2018-07-11T10:08:11.638Z,22.07
2018-07-11T10:09:19.959Z,22.04
2018-07-11T10:10:27.871Z,22.23
2018-07-11T10:11:35.864Z,22.41
2018-07-11T10:12:43.898Z,22.56
2018-07-11T10:13:51.984Z,22.53
2018-07-11T10:15:00.074Z,22.62
2018-07-11T10:16:08.172Z,22.62
2018-07-11T10:17:16.215Z,22.78
2018-07-11T10:18:24.320Z,22.71
2018-07-11T10:19:32.399Z,22.56
2018-07-11T10:20:41.843Z,22.52
2018-07-11T10:21:50.514Z,22.46
2018-07-11T10:22:58.565Z,22.26
2018-07-11T10:24:06.695Z,22.19
2018-07-11T10:25:14.808Z,22.06
2018-07-11T10:26:22.845Z,22.04
2018-07-11T10:27:34.265Z,21.92
2018-07-11T10:28:41.016Z,21.92
2018-07-11T10:29:49.072Z,22.06
2018-07-11T10:30:57.113Z,21.88
2018-07-11T10:32:06.281Z,21.91
2018-07-11T10:33:16.300Z,21.88
2018-07-11T10:34:24.375Z,21.84
2018-07-11T10:35:32.407Z,22.07
2018-07-11T10:36:41.872Z,22.38
2018-07-11T10:37:48.568Z,22.59
2018-07-11T10:38:56.680Z,22.73
2018-07-11T10:40:04.707Z,23.06
2018-07-11T10:41:12.761Z,23.20
2018-07-11T10:42:20.884Z,23.14
2018-07-11T10:43:28.925Z,23.11
2018-07-11T10:44:36.995Z,23.32
2018-07-11T10:45:45.064Z,23.39
2018-07-11T10:46:53.155Z,23.47
2018-07-11T10:48:01.224Z,23.66
2018-07-11T10:49:09.333Z,23.74
2018-07-11T10:50:17.378Z,23.66
2018-07-11T10:51:25.424Z,23.67
2018-07-11T10:52:33.473Z,23.59
2018-07-11T10:53:41.589Z,23.79
2018-07-11T10:54:49.635Z,23.99
2018-07-11T10:55:57.763Z,23.88
2018-07-11T10:57:05.854Z,23.85
2018-07-11T10:58:13.892Z,23.49
2018-07-11T10:59:21.940Z,23.45
2018-07-11T11:00:36.660Z,23.62
2018-07-11T11:01:38.148Z,23.67
2018-07-11T11:02:46.179Z,24.01
2018-07-11T11:03:54.254Z,23.94
2018-07-11T11:05:02.321Z,23.89
2018-07-11T11:06:10.390Z,23.66
2018-07-11T11:07:18.474Z,23.47
2018-07-11T11:08:26.559Z,23.40
2018-07-11T11:09:34.617Z,23.48
2018-07-11T11:10:42.688Z,23.51
2018-07-11T11:11:50.770Z,23.59
2018-07-11T11:12:58.871Z,23.64
2018-07-11T11:14:06.910Z,23.52
2018-07-11T11:15:15.006Z,23.52
2018-07-11T11:16:23.066Z,23.54
2018-07-11T11:17:31.228Z,23.73
2018-07-11T11:18:39.220Z,23.89
2018-07-11T11:19:47.278Z,24.03
2018-07-11T11:20:55.358Z,24.00
2018-07-11T11:22:03.461Z,23.88
2018-07-11T11:23:11.483Z,23.92
2018-07-11T11:24:19.589Z,24.09
2018-07-11T11:25:27.664Z,24.37
2018-07-11T11:26:35.744Z,24.51
2018-07-11T11:27:43.782Z,24.62
2018-07-11T11:28:51.877Z,24.71
2018-07-11T11:29:59.982Z,24.58
2018-07-11T11:31:08.046Z,24.53
2018-07-11T11:32:16.101Z,24.58
2018-07-11T11:33:24.225Z,24.38
2018-07-11T11:34:32.262Z,24.46
2018-07-11T11:35:40.360Z,24.56
2018-07-11T11:36:48.417Z,24.44
2018-07-11T11:37:56.477Z,24.44
2018-07-11T11:39:04.610Z,24.38
2018-07-11T11:40:12.663Z,24.40
2018-07-11T11:41:20.702Z,24.50
2018-07-11T11:42:29.168Z,24.58
2018-07-11T11:43:37.150Z,24.51
2018-07-11T11:44:45.119Z,24.65
2018-07-11T11:45:53.230Z,24.79
2018-07-11T11:47:01.282Z,24.78
2018-07-11T11:48:09.376Z,24.65
2018-07-11T11:49:17.410Z,24.47
2018-07-11T11:50:25.534Z,24.53
2018-07-11T11:51:33.591Z,24.38
2018-07-11T11:52:41.671Z,24.44
2018-07-11T11:53:49.740Z,24.48
2018-07-11T11:54:57.791Z,24.56
2018-07-11T11:56:05.907Z,24.51
2018-07-11T11:57:13.967Z,24.34
2018-07-11T11:58:22.071Z,24.51
2018-07-11T11:59:30.138Z,24.56
2018-07-11T12:00:38.198Z,24.61
2018-07-11T12:01:46.331Z,24.59
2018-07-11T12:02:54.329Z,24.75
2018-07-11T12:04:02.383Z,24.89
2018-07-11T12:05:10.473Z,24.85
2018-07-11T12:06:18.533Z,24.61
2018-07-11T12:07:26.674Z,24.47
2018-07-11T12:08:34.752Z,24.55
2018-07-11T12:09:42.752Z,24.48
2018-07-11T12:10:50.839Z,24.56
2018-07-11T12:11:58.906Z,24.66
2018-07-11T12:13:06.998Z,24.69
2018-07-11T12:14:15.088Z,24.56
2018-07-11T12:15:23.195Z,24.41
2018-07-11T12:16:31.231Z,24.32
2018-07-11T12:17:39.279Z,24.32
2018-07-11T12:18:47.365Z,24.07
2018-07-11T12:19:55.419Z,24.24
2018-07-11T12:21:03.539Z,24.31
2018-07-11T12:22:11.576Z,24.25
2018-07-11T12:23:19.674Z,24.21
2018-07-11T12:24:27.775Z,23.91
2018-07-11T12:25:35.804Z,23.99
2018-07-11T12:26:43.876Z,24.10
2018-07-11T12:27:51.943Z,24.00
2018-07-11T12:29:00.035Z,24.07
2018-07-11T12:30:08.177Z,24.07
2018-07-11T12:31:16.173Z,23.99
2018-07-11T12:32:24.243Z,24.14
2018-07-11T12:33:32.360Z,24.07
2018-07-11T12:34:40.441Z,24.04
2018-07-11T12:35:48.492Z,24.06
2018-07-11T12:36:56.537Z,24.04
2018-07-11T12:38:04.609Z,24.04
2018-07-11T12:39:12.709Z,24.07
2018-07-11T12:40:20.765Z,24.18
2018-07-11T12:41:28.824Z,24.22
2018-07-11T12:42:36.889Z,24.06
2018-07-11T12:43:44.972Z,24.01
2018-07-11T12:44:53.064Z,23.88
2018-07-11T12:46:01.110Z,23.92
2018-07-11T12:47:09.190Z,24.07
2018-07-11T12:48:17.256Z,24.19
2018-07-11T12:49:25.360Z,24.09
2018-07-11T12:50:33.414Z,24.03
2018-07-11T12:51:41.501Z,24.24
2018-07-11T12:52:49.570Z,24.21
2018-07-11T12:53:57.676Z,24.13
2018-07-11T12:55:05.715Z,24.37
2018-07-11T12:56:13.744Z,24.29
2018-07-11T12:57:21.866Z,24.38
2018-07-11T12:58:29.993Z,24.32
2018-07-11T12:59:37.992Z,24.50
2018-07-11T13:00:46.147Z,24.59
2018-07-11T13:01:54.170Z,24.58
2018-07-11T13:03:02.239Z,24.47
2018-07-11T13:04:10.354Z,24.51
2018-07-11T13:05:18.375Z,24.32
2018-07-11T13:06:26.445Z,24.31
2018-07-11T13:07:34.533Z,24.21
2018-07-11T13:08:42.585Z,24.16
2018-07-11T13:09:50.661Z,24.14
2018-07-11T13:10:58.743Z,24.01
2018-07-11T13:12:06.826Z,24.09
2018-07-11T13:13:14.867Z,24.04
2018-07-11T13:14:22.986Z,24.04
2018-07-11T13:15:31.054Z,24.11
2018-07-11T13:16:39.113Z,24.18
2018-07-11T13:17:47.195Z,24.07
2018-07-11T13:18:55.260Z,23.95
2018-07-11T13:20:03.328Z,23.84
2018-07-11T13:21:11.420Z,23.89
2018-07-11T13:22:19.473Z,24.01
2018-07-11T13:23:27.523Z,24.01
2018-07-11T13:24:35.652Z,24.10
2018-07-11T13:25:43.833Z,23.91
2018-07-11T13:26:51.761Z,23.94
2018-07-11T13:27:59.864Z,23.99
2018-07-11T13:29:07.928Z,23.85
2018-07-11T13:30:16.000Z,23.94
2018-07-11T13:31:24.066Z,23.88
2018-07-11T13:32:32.134Z,23.66
2018-07-11T13:33:40.222Z,23.44
2018-07-11T13:34:48.288Z,23.33
2018-07-11T13:35:56.346Z,23.11
2018-07-11T13:37:04.478Z,22.89
2018-07-11T13:38:12.582Z,22.93
2018-07-11T13:39:20.589Z,22.91
2018-07-11T13:40:28.682Z,22.80
2018-07-11T13:41:36.723Z,22.88
2018-07-11T13:42:44.766Z,23.11
2018-07-11T13:43:52.933Z,23.14
2018-07-11T13:45:00.945Z,23.20
2018-07-11T13:46:08.995Z,23.23
2018-07-11T13:47:17.259Z,23.13
2018-07-11T13:48:25.159Z,23.13
2018-07-11T13:49:33.218Z,23.17
2018-07-11T13:50:41.300Z,23.17
2018-07-11T13:51:49.362Z,23.10
2018-07-11T13:52:57.462Z,23.20
2018-07-11T13:54:05.532Z,23.20
2018-07-11T13:55:13.605Z,23.26
2018-07-11T13:56:21.664Z,23.33
2018-07-11T13:57:29.726Z,23.40
2018-07-11T13:58:37.813Z,23.33
2018-07-11T13:59:45.862Z,23.39
2018-07-11T14:00:53.963Z,23.40
2018-07-11T14:02:02.089Z,23.49
2018-07-11T14:03:14.373Z,23.39
2018-07-11T14:04:22.465Z,23.33
2018-07-11T14:05:30.490Z,23.34
2018-07-11T14:06:38.549Z,23.32
2018-07-11T14:07:46.602Z,23.23
2018-07-11T14:08:54.741Z,23.32
2018-07-11T14:10:02.749Z,23.44
2018-07-11T14:11:10.828Z,23.39
2018-07-11T14:12:18.919Z,23.34
2018-07-11T14:13:27.021Z,23.45
2018-07-11T14:14:35.055Z,23.42
2018-07-11T14:15:43.134Z,23.45
2018-07-11T14:16:51.201Z,23.34
2018-07-11T14:17:59.302Z,23.51
2018-07-11T14:19:07.367Z,23.59
2018-07-11T14:20:15.406Z,23.64
2018-07-11T14:21:23.463Z,23.59
2018-07-11T14:22:31.798Z,23.67
2018-07-11T14:23:39.886Z,23.82
2018-07-11T14:24:47.974Z,23.88
2018-07-11T14:25:55.997Z,23.86
2018-07-11T14:27:04.107Z,24.06
2018-07-11T14:28:12.133Z,24.03
2018-07-11T14:29:20.247Z,24.00
2018-07-11T14:30:28.309Z,24.04
2018-07-11T14:31:36.366Z,23.76
2018-07-11T14:32:44.450Z,23.69
2018-07-11T14:33:52.524Z,23.63
2018-07-11T14:35:00.570Z,23.67
2018-07-11T14:36:08.646Z,23.52
2018-07-11T14:37:16.692Z,23.48
2018-07-11T14:38:24.812Z,23.48
2018-07-11T14:39:32.889Z,23.40
2018-07-11T14:40:40.931Z,23.25
2018-07-11T14:41:48.976Z,23.28
2018-07-11T14:42:57.054Z,23.26
2018-07-11T14:44:05.145Z,23.11